Time;durP1;ratioP1;P1;durP2;ratioP2;P2;SDS_P1;SDS_P2;PMS_P1;PMS_P2;Temp;Humidity;BMP_temperature;BMP_pressure;BME280_temperature;BME280_humidity;BME280_pressure;Samples;Min_cycle;Max_cycle;Signal;HPM_P1;HPM_P2
2021/12/15 00:00:47;;;;;;;62.28;32.72;;;;;;;4.08;62.39;101002.84;4357855;32;32374;-81
2021/12/15 00:03:19;;;;;;;54.97;30.95;;;;;;;4.20;62.07;101006.31;4363471;32;33191;-81
2021/12/15 00:05:49;;;;;;;54.40;29.98;;;;;;;4.32;61.73;101004.38;4346513;32;34027;-80
2021/12/15 00:08:17;;;;;;;69.57;34.30;;;;;;;4.30;61.58;101005.38;4364024;32;34822;-81
2021/12/15 00:10:48;;;;;;;59.88;31.52;;;;;;;4.22;62.14;101001.62;4358275;32;34059;-81
2021/12/15 00:13:18;;;;;;;54.05;31.00;;;;;;;4.30;61.89;100996.37;4363845;32;34400;-80
2021/12/15 00:15:46;;;;;;;53.33;30.12;;;;;;;4.20;62.09;100990.88;4334520;32;32264;-81
2021/12/15 00:18:15;;;;;;;53.30;31.02;;;;;;;4.38;61.60;100996.53;4363676;32;34448;-81
2021/12/15 00:20:43;;;;;;;55.63;31.25;;;;;;;4.38;61.66;100993.81;4345898;32;33360;-81
2021/12/15 00:23:11;;;;;;;55.42;31.40;;;;;;;4.22;62.12;100996.19;4351416;32;33423;-81
2021/12/15 00:25:42;;;;;;;56.40;32.20;;;;;;;4.34;62.08;100988.78;4339562;32;33600;-81
2021/12/15 00:28:13;;;;;;;59.80;33.83;;;;;;;4.26;62.25;100995.78;4351396;32;32942;-81
2021/12/15 00:30:41;;;;;;;59.90;32.97;;;;;;;4.29;62.21;100979.19;4354835;32;32294;-81
2021/12/15 00:33:13;;;;;;;67.62;34.42;;;;;;;4.34;62.07;100988.78;4351918;32;33812;-80
2021/12/15 00:35:41;;;;;;;56.40;32.83;;;;;;;4.30;61.86;100994.50;4363888;32;34027;-80
2021/12/15 00:38:09;;;;;;;57.20;33.22;;;;;;;4.37;61.36;100994.81;4374478;32;33726;-80
2021/12/15 00:40:37;;;;;;;62.55;35.80;;;;;;;4.26;61.48;100995.78;4372441;32;32284;-80
2021/12/15 00:43:06;;;;;;;61.08;34.38;;;;;;;4.29;61.61;100997.38;4360232;32;34565;-80
2021/12/15 00:45:36;;;;;;;61.65;33.80;;;;;;;4.40;61.13;101007.28;4365943;32;34000;-80
2021/12/15 00:48:05;;;;;;;58.28;33.88;;;;;;;4.27;61.25;100997.50;4336178;32;32864;-81
2021/12/15 00:50:34;;;;;;;59.75;32.80;;;;;;;4.36;61.05;101003.97;4362709;32;32826;-80
2021/12/15 00:53:03;;;;;;;64.93;33.50;;;;;;;4.35;61.01;101009.53;4347679;32;31852;-81
2021/12/15 00:55:32;;;;;;;61.65;31.75;;;;;;;4.30;61.19;101004.50;4351084;32;33010;-82
2021/12/15 00:58:01;;;;;;;56.13;33.35;;;;;;;4.34;61.09;101014.13;4347250;32;34289;-82
2021/12/15 01:00:36;;;;;;;62.17;33.83;;;;;;;4.41;61.04;101017.16;4363558;32;34786;-81
2021/12/15 01:03:06;;;;;;;55.95;31.25;;;;;;;4.38;61.07;101022.84;4347937;32;31925;-81
2021/12/15 01:05:39;;;;;;;59.53;32.28;;;;;;;4.40;61.03;101020.88;4363433;32;33186;-81
2021/12/15 01:08:11;;;;;;;57.53;33.22;;;;;;;4.38;61.22;101022.84;4347966;32;32854;-82
2021/12/15 01:11:01;;;;;;;59.47;33.13;;;;;;;4.44;60.90;101025.88;4363222;32;32253;-81
2021/12/15 01:21:53;;;;;;;;;;;;;;;4.45;60.62;101021.31;4352514;32;32583;-80
2021/12/15 01:24:25;;;;;;;49.67;27.13;;;;;;;4.41;60.76;101022.59;4350718;32;33539;-82
2021/12/15 01:26:53;;;;;;;71.95;44.75;;;;;;;4.29;60.92;101022.69;4347733;32;33962;-82
2021/12/15 01:29:21;;;;;;;112.65;64.15;;;;;;;3.96;61.75;101025.62;4364611;32;34402;-81
2021/12/15 01:31:49;;;;;;;148.43;76.78;;;;;;;3.83;62.07;101022.28;4347904;32;33369;-81
2021/12/15 01:34:17;;;;;;;168.35;90.53;;;;;;;3.74;62.38;101018.53;4352948;32;31939;-81
2021/12/15 01:36:45;;;;;;;55.20;31.77;;;;;;;3.93;61.76;101026.75;4359533;32;33662;-81
2021/12/15 01:39:13;;;;;;;48.92;28.77;;;;;;;3.92;61.56;101010.59;4352710;32;34330;-81
2021/12/15 01:41:42;;;;;;;51.88;28.48;;;;;;;3.82;61.98;101015.16;4360121;32;33735;-81
2021/12/15 01:46:59;;;;;;;60.70;33.60;;;;;;;3.86;61.58;101011.16;4352477;32;33203;-81
2021/12/15 01:49:32;;;;;;;47.30;26.37;;;;;;;3.90;61.40;101016.16;4341143;32;33830;-81
2021/12/15 01:52:08;;;;;;;45.38;27.02;;;;;;;3.92;61.02;101030.47;4360592;32;33796;-81
2021/12/15 01:54:37;;;;;;;45.92;27.40;;;;;;;3.78;61.68;101024.53;4364498;32;33539;-81
2021/12/15 01:57:05;;;;;;;49.03;25.48;;;;;;;3.86;61.35;101022.03;4360968;32;34600;-82
2021/12/15 01:59:34;;;;;;;46.35;25.30;;;;;;;3.99;60.91;101017.22;4364348;32;34713;-81
2021/12/15 02:02:02;;;;;;;45.83;26.83;;;;;;;4.15;60.33;101031.19;4359329;32;33852;-81
2021/12/15 02:04:31;;;;;;;46.97;26.87;;;;;;;3.78;61.44;101024.53;4363121;32;34127;-82
2021/12/15 02:07:00;;;;;;;45.08;26.70;;;;;;;3.92;60.88;101026.91;4359253;32;33772;-82
2021/12/15 02:12:22;;;;;;;50.88;26.05;;;;;;;3.90;61.24;101020.78;4350534;32;33397;-82
2021/12/15 02:14:51;;;;;;;48.75;25.90;;;;;;;3.84;61.46;101026.72;4358231;32;33465;-81
2021/12/15 02:17:20;;;;;;;47.70;26.20;;;;;;;3.82;61.26;101018.72;4362877;32;34739;-81
2021/12/15 02:19:48;;;;;;;50.03;25.05;;;;;;;3.92;61.13;101018.75;4357754;32;34341;-81
2021/12/15 02:22:17;;;;;;;45.95;24.95;;;;;;;4.05;60.81;101011.25;4363109;32;34826;-81
2021/12/15 02:24:49;;;;;;;41.75;23.80;;;;;;;3.80;61.60;101006.25;4345370;32;31845;-81
2021/12/15 02:27:17;;;;;;;39.83;22.13;;;;;;;3.85;61.38;101007.59;4363005;32;33519;-81
2021/12/15 02:29:48;;;;;;;37.67;21.12;;;;;;;3.72;61.93;101008.78;4357806;32;33921;-82
2021/12/15 02:32:48;;;;;;;39.65;21.00;;;;;;;3.97;61.10;101014.62;4364505;32;34789;-81
2021/12/15 02:37:55;;;;;;;33.17;19.48;;;;;;;3.75;61.90;101022.09;4362906;32;33596;-81
2021/12/15 02:40:23;;;;;;;32.58;18.00;;;;;;;3.92;61.39;101016.03;4349233;32;33111;-81
2021/12/15 02:42:51;;;;;;;32.92;18.80;;;;;;;4.02;61.08;101021.53;4357834;32;32438;-82
2021/12/15 02:45:24;;;;;;;34.75;18.87;;;;;;;3.90;61.36;101026.19;4362509;32;33018;-81
2021/12/15 02:47:53;;;;;;;33.15;18.75;;;;;;;4.01;61.18;101026.09;4345903;32;32336;-81
2021/12/15 02:50:23;;;;;;;37.80;18.55;;;;;;;4.01;61.11;101026.09;4362905;32;34276;-80
2021/12/15 02:52:52;;;;;;;40.83;19.52;;;;;;;3.98;61.27;101026.38;4350546;32;32462;-81
2021/12/15 02:55:22;;;;;;;31.70;17.08;;;;;;;4.25;60.45;101012.22;4362774;32;31865;-82
2021/12/15 02:57:52;;;;;;;34.20;18.45;;;;;;;3.82;61.54;101012.44;4350465;32;32324;-81
2021/12/15 03:00:27;;;;;;;34.80;19.58;;;;;;;4.06;60.99;101018.41;4362863;32;34686;-81
2021/12/15 03:05:46;;;;;;;36.15;19.20;;;;;;;4.16;60.74;101016.59;4362880;32;34366;-81
2021/12/15 03:08:46;;;;;;;33.33;18.87;;;;;;;4.01;61.35;101017.09;4361586;32;32376;-80
2021/12/15 03:16:42;;;;;;;36.85;19.80;;;;;;;4.12;61.36;101007.00;4362686;32;33305;-81
2021/12/15 03:19:13;;;;;;;33.67;19.15;;;;;;;4.17;60.94;101001.16;4362480;32;32899;-82
2021/12/15 03:21:44;;;;;;;34.60;19.48;;;;;;;4.20;60.71;100996.31;4362472;32;33726;-81
2021/12/15 03:24:18;;;;;;;35.33;20.05;;;;;;;4.24;60.51;100996.91;4362666;32;33726;-81
2021/12/15 03:26:58;;;;;;;36.65;20.40;;;;;;;4.32;60.17;100985.34;4350209;32;31935;-81
2021/12/15 03:35:33;;;;;;;38.75;20.67;;;;;;;4.24;60.45;100976.03;4346343;32;34963;-82
2021/12/15 03:38:01;;;;;;;33.65;18.17;;;;;;;4.15;60.69;100978.69;4362731;32;34397;-82
2021/12/15 03:40:40;;;;;;;33.35;18.95;;;;;;;4.22;60.54;100986.19;4362373;32;34366;-82
2021/12/15 03:43:16;;;;;;;32.65;18.98;;;;;;;4.21;60.53;100994.47;4362402;32;34295;-81
2021/12/15 03:45:48;;;;;;;34.10;18.62;;;;;;;4.22;60.47;100999.75;4362187;32;34125;-82
2021/12/15 03:48:19;;;;;;;36.38;19.08;;;;;;;4.26;60.42;100995.78;4349290;32;34097;-81
2021/12/15 03:50:47;;;;;;;38.92;19.60;;;;;;;4.33;60.16;100995.22;4350128;32;32363;-81
2021/12/15 03:53:18;;;;;;;32.38;19.35;;;;;;;4.21;60.43;100998.03;4350216;32;34505;-81
2021/12/15 03:55:48;;;;;;;35.67;20.48;;;;;;;4.28;60.17;101004.66;4349817;32;32425;-81
2021/12/15 03:58:21;;;;;;;31.80;19.30;;;;;;;4.17;60.32;101010.16;4350071;32;33488;-81
2021/12/15 04:01:03;;;;;;;38.28;20.62;;;;;;;4.08;60.67;100999.25;4362233;32;34494;-81
2021/12/15 04:03:41;;;;;;;31.87;18.98;;;;;;;4.12;60.68;101006.13;4362219;32;34433;-82
2021/12/15 04:06:13;;;;;;;34.35;19.25;;;;;;;4.23;60.19;101004.19;4362475;32;33842;-81
2021/12/15 04:08:44;;;;;;;36.03;19.52;;;;;;;4.02;60.54;100992.50;4350087;32;31853;-79
2021/12/15 04:11:14;;;;;;;40.38;21.30;;;;;;;4.01;62.86;100998.94;4349730;32;33363;-81
2021/12/15 04:13:47;;;;;;;37.90;21.95;;;;;;;4.30;64.80;101010.81;4362168;32;34646;-82
2021/12/15 04:19:20;;;;;;;35.05;19.55;;;;;;;3.93;62.03;101015.91;4352956;32;33452;-82
2021/12/15 04:21:51;;;;;;;36.05;19.80;;;;;;;4.09;60.76;101023.56;4362074;32;34463;-81
2021/12/15 04:24:19;;;;;;;35.83;19.92;;;;;;;4.19;60.16;101018.19;4361947;32;33953;-81
2021/12/15 04:26:50;;;;;;;35.72;19.12;;;;;;;3.92;60.55;101007.88;4362005;32;33302;-81
2021/12/15 04:29:18;;;;;;;34.80;19.65;;;;;;;4.19;59.46;101005.47;4349724;32;31737;-80
2021/12/15 04:32:03;;;;;;;44.22;20.85;;;;;;;4.09;59.49;101010.00;4362008;32;33739;-80
2021/12/15 04:34:30;;;;;;;36.00;20.92;;;;;;;4.00;59.74;101013.50;4361885;32;35091;-81
2021/12/15 04:36:58;;;;;;;34.88;20.55;;;;;;;4.00;59.59;101007.22;4350549;32;34588;-81
2021/12/15 04:39:27;;;;;;;35.25;19.50;;;;;;;3.84;59.88;101024.88;4368887;32;33784;-82
2021/12/15 04:41:56;;;;;;;36.53;20.98;;;;;;;3.74;60.03;101032.09;4370908;32;33921;-80
2021/12/15 04:44:30;;;;;;;36.35;21.02;;;;;;;3.51;60.55;101034.06;4372616;32;34771;-81
2021/12/15 04:47:07;;;;;;;37.33;21.83;;;;;;;3.46;60.75;101033.59;4360309;32;35216;-81
2021/12/15 04:49:39;;;;;;;38.00;19.58;;;;;;;3.42;61.07;101033.97;4359104;32;33705;-80
2021/12/15 04:52:10;;;;;;;34.00;19.70;;;;;;;3.64;60.42;101029.31;4358507;32;31848;-81
2021/12/15 04:54:38;;;;;;;35.03;19.65;;;;;;;3.75;60.05;101032.97;4368854;32;34659;-81
2021/12/15 04:57:08;;;;;;;35.95;19.60;;;;;;;3.77;60.00;101039.12;4355931;32;32242;-81
2021/12/15 04:59:36;;;;;;;37.05;20.45;;;;;;;3.66;60.17;101034.59;4352790;32;33704;-81
2021/12/15 05:02:08;;;;;;;35.15;19.62;;;;;;;3.60;60.39;101041.41;4365057;32;33822;-81
2021/12/15 05:04:39;;;;;;;32.88;19.23;;;;;;;3.71;60.41;101042.34;4364554;32;34877;-81
2021/12/15 05:07:08;;;;;;;35.15;20.27;;;;;;;3.64;60.71;101037.44;4363814;32;33922;-80
2021/12/15 05:09:40;;;;;;;34.38;20.25;;;;;;;3.45;61.49;101045.44;4351395;32;32365;-81
2021/12/15 05:12:08;;;;;;;36.33;19.77;;;;;;;3.71;61.00;101047.78;4363333;32;32828;-81
2021/12/15 05:14:38;;;;;;;38.38;21.10;;;;;;;3.69;61.04;101057.91;4363303;32;32944;-81
2021/12/15 05:17:06;;;;;;;35.10;20.52;;;;;;;3.56;61.40;101068.94;4351165;32;33980;-81
2021/12/15 05:19:37;;;;;;;37.33;20.55;;;;;;;3.80;60.73;101066.00;4363516;32;33341;-81
2021/12/15 05:22:05;;;;;;;39.17;19.87;;;;;;;3.57;61.34;101060.69;4363456;32;33437;-81
2021/12/15 05:24:34;;;;;;;37.55;21.15;;;;;;;3.73;61.21;101068.38;4363280;32;34624;-82
2021/12/15 05:27:09;;;;;;;38.78;20.23;;;;;;;3.71;61.29;101050.50;4350862;32;33366;-81
2021/12/15 05:29:38;;;;;;;37.38;20.73;;;;;;;3.80;60.87;101060.56;4363212;32;33679;-80
2021/12/15 05:32:08;;;;;;;39.05;20.30;;;;;;;3.77;60.87;101069.84;4351123;32;33702;-81
2021/12/15 05:34:38;;;;;;;39.90;21.27;;;;;;;3.74;62.36;101066.53;4363072;32;34495;-81
2021/12/15 05:37:07;;;;;;;42.65;22.52;;;;;;;3.93;61.43;101072.94;4350863;32;32244;-82
2021/12/15 05:39:35;;;;;;;37.97;21.40;;;;;;;3.59;61.92;101080.41;4350905;32;31905;-82
2021/12/15 05:42:06;;;;;;;40.30;21.48;;;;;;;3.70;61.28;101078.63;4350866;32;34494;-81
2021/12/15 05:44:35;;;;;;;46.35;24.40;;;;;;;3.60;61.46;101078.56;4351062;32;35012;-81
2021/12/15 05:47:04;;;;;;;43.67;23.50;;;;;;;3.64;61.35;101071.88;4363047;32;33706;-81
2021/12/15 05:49:32;;;;;;;46.92;24.75;;;;;;;3.80;60.78;101090.44;4363121;32;34226;-82
2021/12/15 05:52:04;;;;;;;47.28;23.98;;;;;;;3.51;61.77;101088.34;4363692;32;33644;-83
2021/12/15 05:54:32;;;;;;;44.50;23.52;;;;;;;3.64;61.45;101094.47;4362771;32;32555;-82
2021/12/15 05:57:00;;;;;;;42.70;22.58;;;;;;;3.58;61.44;101099.53;4350984;32;34120;-81
2021/12/15 05:59:30;;;;;;;41.67;22.65;;;;;;;3.67;61.22;101095.19;4363248;32;33453;-82
2021/12/15 06:01:58;;;;;;;37.65;20.73;;;;;;;3.74;61.15;101099.09;4362899;32;34551;-81
2021/12/15 06:04:26;;;;;;;40.58;22.70;;;;;;;3.52;62.15;101110.91;4363299;32;34170;-82
2021/12/15 06:06:57;;;;;;;42.10;24.40;;;;;;;3.67;61.72;101108.75;4361234;32;32649;-80
2021/12/15 06:09:28;;;;;;;46.33;25.67;;;;;;;3.73;61.31;101108.25;4361395;32;31871;-79
2021/12/15 06:11:56;;;;;;;55.42;32.15;;;;;;;3.61;61.82;101116.44;4349965;32;34811;-81
2021/12/15 06:14:28;;;;;;;99.00;52.62;;;;;;;3.61;61.94;101115.56;4362582;32;34430;-80
2021/12/15 06:17:08;;;;;;;49.50;28.98;;;;;;;3.56;61.97;101121.37;4362361;32;33376;-82
2021/12/15 06:19:38;;;;;;;56.78;30.52;;;;;;;3.65;61.89;101133.31;4362535;32;33666;-81
2021/12/15 06:22:07;;;;;;;81.37;39.42;;;;;;;3.48;62.28;101137.44;4363148;32;34063;-81
2021/12/15 06:24:38;;;;;;;74.53;36.85;;;;;;;3.72;61.84;101141.81;4362644;32;34393;-81
2021/12/15 06:27:16;;;;;;;56.20;29.05;;;;;;;3.56;62.30;101145.81;4362822;32;33878;-81
2021/12/15 06:29:47;;;;;;;50.95;25.10;;;;;;;3.38;62.95;101141.91;4362914;32;33132;-81
2021/12/15 06:32:16;;;;;;;47.08;24.83;;;;;;;3.75;61.76;101139.72;4362805;32;33960;-81
2021/12/15 06:34:43;;;;;;;46.25;23.02;;;;;;;3.77;61.68;101147.72;4363208;32;33473;-81
2021/12/15 06:37:17;;;;;;;45.25;24.45;;;;;;;3.85;61.19;101142.50;4339111;32;33417;-81
2021/12/15 06:39:45;;;;;;;48.15;25.65;;;;;;;3.79;61.42;101145.75;4362834;32;34244;-81
2021/12/15 06:42:12;;;;;;;47.22;26.40;;;;;;;3.86;61.23;101141.50;4350593;32;32661;-81
2021/12/15 06:44:42;;;;;;;41.15;23.73;;;;;;;3.80;61.53;101148.31;4362746;32;35483;-81
2021/12/15 07:00:34;;;;;;;49.45;28.23;;;;;;;4.03;60.63;101149.06;4350812;32;31090;-82
2021/12/15 07:03:03;;;;;;;52.85;28.00;;;;;;;3.94;60.86;101155.28;4350457;32;33323;-82
2021/12/15 07:05:32;;;;;;;50.88;27.77;;;;;;;4.06;60.59;101153.38;4362678;32;34551;-81
2021/12/15 07:08:02;;;;;;;48.72;27.37;;;;;;;3.92;61.02;101159.97;4362592;32;33895;-81
2021/12/15 07:10:32;;;;;;;49.03;26.35;;;;;;;4.00;60.92;101170.19;4363702;32;34335;-81
2021/12/15 07:13:03;;;;;;;48.00;26.17;;;;;;;3.77;61.48;101178.44;4362774;32;33760;-81
2021/12/15 07:15:36;;;;;;;50.92;26.92;;;;;;;3.92;61.22;101174.41;4362529;32;34751;-80
2021/12/15 07:18:09;;;;;;;51.45;26.73;;;;;;;3.98;60.94;101173.03;4362633;32;34059;-82
2021/12/15 07:20:49;;;;;;;50.97;27.15;;;;;;;4.08;60.70;101168.53;4350847;32;32053;-80
2021/12/15 07:23:22;;;;;;;48.45;27.67;;;;;;;4.15;60.23;101169.75;4361549;32;33023;-81
2021/12/15 07:25:55;;;;;;;44.20;26.45;;;;;;;3.98;60.83;101179.31;4362491;32;32979;-81
2021/12/15 07:28:24;;;;;;;54.80;27.23;;;;;;;3.94;60.99;101183.28;4350451;32;34839;-80
2021/12/15 07:30:53;;;;;;;53.17;26.70;;;;;;;3.88;61.24;101180.25;4350322;32;32012;-80
2021/12/15 07:33:24;;;;;;;55.50;28.12;;;;;;;3.97;61.22;101176.75;4362567;32;34542;-81
2021/12/15 07:35:55;;;;;;;52.38;27.20;;;;;;;3.85;61.85;101175.09;4362182;32;33737;-81
2021/12/15 07:38:22;;;;;;;53.13;26.15;;;;;;;4.02;61.81;101169.06;4350225;32;33937;-81
2021/12/15 07:40:51;;;;;;;53.92;26.33;;;;;;;3.82;62.47;101175.34;4362633;32;33391;-81
2021/12/15 07:43:24;;;;;;;52.95;26.30;;;;;;;3.98;62.41;101173.03;4350589;32;34480;-81
2021/12/15 07:46:01;;;;;;;49.67;26.15;;;;;;;3.98;62.16;101183.91;4362277;32;33598;-81
2021/12/15 07:48:34;;;;;;;49.85;26.45;;;;;;;3.92;62.55;101182.56;4349999;32;33865;-81
2021/12/15 07:51:07;;;;;;;47.75;25.70;;;;;;;3.95;62.57;101184.16;4362678;32;33211;-81
2021/12/15 07:53:38;;;;;;;50.38;27.25;;;;;;;3.86;63.15;101176.81;4362230;32;34785;-81
2021/12/15 07:56:07;;;;;;;50.25;27.40;;;;;;;3.65;64.01;101182.19;4350141;32;35447;-80
2021/12/15 07:58:34;;;;;;;62.28;26.58;;;;;;;3.70;64.46;101190.81;4362441;32;33640;-81
2021/12/15 08:01:04;;;;;;;52.15;26.10;;;;;;;3.87;64.80;101197.56;4362062;32;33286;-81
2021/12/15 08:03:36;;;;;;;53.25;26.98;;;;;;;4.19;63.80;101201.09;4350158;32;32254;-81
2021/12/15 08:06:06;;;;;;;58.90;26.37;;;;;;;3.98;64.47;101202.91;4349985;32;34410;-80
2021/12/15 08:08:34;;;;;;;54.80;27.27;;;;;;;3.94;65.00;101210.47;4361892;32;33384;-81
2021/12/15 08:11:03;;;;;;;55.67;26.62;;;;;;;3.96;65.06;101215.75;4337871;32;33009;-81
2021/12/15 08:13:32;;;;;;;58.45;25.70;;;;;;;3.94;65.79;101215.88;4362084;32;34762;-81
2021/12/15 08:16:02;;;;;;;54.22;25.50;;;;;;;4.06;65.68;101222.16;4362172;32;33986;-81
2021/12/15 08:18:30;;;;;;;65.47;27.90;;;;;;;4.08;65.79;101222.88;4362668;32;34698;-81
2021/12/15 08:20:59;;;;;;;55.67;25.25;;;;;;;4.17;65.71;101223.94;4363267;32;33330;-81
2021/12/15 08:23:30;;;;;;;85.18;32.55;;;;;;;4.21;65.65;101229.00;4350071;32;33086;-81
2021/12/15 08:25:59;;;;;;;70.05;32.80;;;;;;;4.25;65.71;101232.31;4362267;32;34307;-81
2021/12/15 08:28:27;;;;;;;64.40;28.90;;;;;;;4.30;65.60;101236.38;4349912;32;34982;-81
2021/12/15 08:30:54;;;;;;;58.80;28.87;;;;;;;4.34;65.57;101246.97;4337651;32;31867;-80
2021/12/15 08:33:23;;;;;;;58.50;27.80;;;;;;;4.44;66.00;101246.06;4361114;32;33709;-81
2021/12/15 08:35:58;;;;;;;57.83;26.62;;;;;;;4.44;66.08;101253.34;4344305;32;34079;-81
2021/12/15 08:38:26;;;;;;;59.00;28.12;;;;;;;4.60;65.46;101248.31;4361215;32;34729;-81
2021/12/15 08:40:55;;;;;;;57.10;26.58;;;;;;;4.59;65.63;101255.59;4361690;32;33479;-81
2021/12/15 08:43:24;;;;;;;62.45;26.77;;;;;;;4.58;65.95;101258.44;4361765;32;33765;-81
2021/12/15 08:46:04;;;;;;;59.50;25.55;;;;;;;4.56;66.14;101252.28;4361873;32;33553;-81
2021/12/15 08:48:38;;;;;;;69.43;25.75;;;;;;;4.35;67.16;101257.72;4362843;32;33923;-81
2021/12/15 08:51:08;;;;;;;57.83;26.77;;;;;;;4.44;68.71;101261.50;4361604;32;33519;-81
2021/12/15 08:53:36;;;;;;;53.22;25.83;;;;;;;4.56;67.78;101253.13;4361837;32;32355;-82
2021/12/15 08:56:12;;;;;;;77.90;26.87;;;;;;;4.73;66.95;101251.69;4361762;32;34208;-81
2021/12/15 08:58:40;;;;;;;57.00;27.27;;;;;;;4.61;67.10;101247.31;4349432;32;33508;-81
2021/12/15 09:01:13;;;;;;;54.03;25.33;;;;;;;4.64;67.06;101253.34;4361788;32;34332;-81
2021/12/15 09:03:43;;;;;;;58.70;25.93;;;;;;;4.75;66.68;101255.13;4349776;32;33351;-81
2021/12/15 09:06:12;;;;;;;53.63;26.95;;;;;;;4.70;66.83;101251.09;4361395;32;33041;-81
2021/12/15 09:08:44;;;;;;;53.42;27.60;;;;;;;4.70;66.97;101253.81;4361433;32;34035;-81
2021/12/15 09:11:18;;;;;;;51.88;25.90;;;;;;;4.84;66.71;101251.63;4349583;32;33506;-82
2021/12/15 09:13:51;;;;;;;54.63;26.05;;;;;;;4.96;66.27;101247.81;4349258;32;34243;-81
2021/12/15 09:16:25;;;;;;;56.63;26.77;;;;;;;4.96;66.70;101244.25;4361262;32;34506;-82
2021/12/15 09:18:56;;;;;;;59.33;29.20;;;;;;;4.91;67.12;101247.37;4337206;32;33433;-82
2021/12/15 09:21:27;;;;;;;58.53;27.02;;;;;;;5.10;66.56;101235.72;4361163;32;33248;-81
2021/12/15 09:23:58;;;;;;;56.05;27.20;;;;;;;5.13;66.72;101240.91;4336702;32;33136;-81
2021/12/15 09:26:27;;;;;;;52.13;25.30;;;;;;;5.15;66.96;101243.47;4349404;32;35101;-81
2021/12/15 09:28:57;;;;;;;53.65;25.83;;;;;;;5.28;66.76;101246.81;4361269;32;33549;-82
2021/12/15 09:31:25;;;;;;;59.70;27.42;;;;;;;5.39;66.58;101240.41;4361038;32;34115;-82
2021/12/15 09:33:55;;;;;;;55.53;27.67;;;;;;;5.57;66.02;101247.78;4348926;32;33161;-82
2021/12/15 09:36:23;;;;;;;53.33;27.13;;;;;;;5.59;65.82;101244.94;4361175;32;34130;-82
2021/12/15 09:38:54;;;;;;;57.15;27.50;;;;;;;5.58;65.92;101244.06;4348917;32;33881;-80
2021/12/15 09:41:25;;;;;;;56.10;26.83;;;;;;;5.75;65.55;101239.81;4348755;32;31690;-82
2021/12/15 09:43:56;;;;;;;55.10;26.77;;;;;;;5.84;65.27;101238.97;4361587;32;34717;-81
2021/12/15 09:46:32;;;;;;;52.15;25.67;;;;;;;5.83;65.21;101239.12;4361379;32;34338;-80
2021/12/15 09:57:28;;;;;;;52.75;26.75;;;;;;;6.20;63.90;101232.00;4378916;32;34377;-81
2021/12/15 10:02:54;;;;;;;46.22;25.17;;;;;;;6.24;63.54;101241.59;4354003;32;31783;-82
2021/12/15 10:11:49;;;;;;;46.47;25.73;;;;;;;6.33;63.13;101245.34;4260433;33;33441;-83
2021/12/15 10:17:43;;;;;;;56.35;30.12;;;;;;;6.57;62.21;101242.16;4332439;33;34915;-83
2021/12/15 10:20:37;;;;;;;48.08;24.77;;;;;;;6.21;64.18;101236.44;4362172;32;34677;-83
2021/12/15 10:23:11;;;;;;;40.28;23.52;;;;;;;6.41;63.82;101242.75;4351243;32;32392;-83
2021/12/15 10:25:45;;;;;;;45.50;23.83;;;;;;;6.39;63.76;101243.91;4363089;32;33552;-82
2021/12/15 10:28:18;;;;;;;42.53;23.00;;;;;;;6.22;64.44;101246.34;4350651;32;32341;-82
2021/12/15 10:30:50;;;;;;;41.88;22.45;;;;;;;6.44;63.77;101238.88;4363321;32;34384;-82
2021/12/15 10:33:22;;;;;;;46.95;25.52;;;;;;;6.41;63.72;101245.50;4363142;32;33879;-83
2021/12/15 10:36:02;;;;;;;38.72;22.98;;;;;;;6.52;63.89;101244.44;4363996;32;33223;-83
2021/12/15 10:38:41;;;;;;;45.65;24.98;;;;;;;5.83;64.97;101242.69;4350753;32;33306;-83
2021/12/15 10:41:16;;;;;;;42.72;23.90;;;;;;;6.48;63.71;101240.31;4362845;32;33811;-82
2021/12/15 10:43:50;;;;;;;39.95;22.50;;;;;;;6.19;64.25;101243.03;4362727;32;33928;-83
2021/12/15 10:46:20;;;;;;;39.45;23.17;;;;;;;6.57;63.47;101242.16;4350523;32;32883;-84
2021/12/15 10:48:57;;;;;;;38.85;23.50;;;;;;;6.74;63.15;101240.56;4350483;32;32298;-84
2021/12/15 10:51:48;;;;;;;39.63;22.83;;;;;;;6.83;62.64;101242.41;4363205;32;35260;-84
2021/12/15 10:54:23;;;;;;;68.07;35.03;;;;;;;6.55;62.75;101238.69;4340704;32;32622;-83
2021/12/15 10:57:08;;;;;;;48.87;26.67;;;;;;;6.89;62.23;101242.69;4350198;32;33386;-83
2021/12/15 10:59:40;;;;;;;58.65;31.02;;;;;;;7.12;61.61;101237.75;4363091;32;34603;-83
2021/12/15 11:02:32;;;;;;;42.22;24.25;;;;;;;7.25;61.01;101237.37;4362960;32;34522;-83
2021/12/15 11:05:10;;;;;;;42.28;23.62;;;;;;;7.46;60.51;101231.69;4374880;32;33829;-83
2021/12/15 11:07:45;;;;;;;38.17;22.83;;;;;;;7.50;60.45;101239.44;4362418;32;31804;-82
2021/12/15 11:10:22;;;;;;;41.13;24.75;;;;;;;7.47;63.45;101242.47;4363800;32;33801;-83
2021/12/15 11:12:55;;;;;;;43.80;22.67;;;;;;;7.41;62.92;101237.59;4350548;32;33746;-83
2021/12/15 11:15:49;;;;;;;45.85;24.35;;;;;;;7.82;60.96;101233.47;4362886;32;34584;-81
2021/12/15 11:18:22;;;;;;;36.25;21.42;;;;;;;8.03;59.39;101230.47;4350935;32;32237;-83
2021/12/15 11:20:59;;;;;;;42.80;23.55;;;;;;;7.46;59.17;101235.28;4362908;32;34682;-83
2021/12/15 11:23:33;;;;;;;80.40;41.33;;;;;;;7.99;58.07;101233.66;4362983;32;34387;-83
2021/12/15 11:26:03;;;;;;;38.58;22.75;;;;;;;8.14;57.78;101224.75;4350493;32;33750;-82
2021/12/15 11:28:54;;;;;;;32.67;20.45;;;;;;;8.19;57.65;101225.16;4350421;32;33543;-84
2021/12/15 11:31:31;;;;;;;38.30;21.85;;;;;;;8.33;57.05;101229.25;4350657;32;33094;-83
2021/12/15 11:34:05;;;;;;;38.65;20.23;;;;;;;8.42;56.84;101222.00;4350460;32;32765;-84
2021/12/15 11:36:36;;;;;;;38.45;23.02;;;;;;;8.54;56.89;101226.16;4362208;32;32728;-83
2021/12/15 11:39:10;;;;;;;38.33;21.70;;;;;;;8.57;56.99;101229.44;4350085;32;32051;-84
2021/12/15 11:41:44;;;;;;;36.38;21.85;;;;;;;8.71;56.58;101229.91;4361712;32;32294;-84
2021/12/15 11:44:18;;;;;;;41.80;24.23;;;;;;;8.66;56.29;101230.37;4350677;32;33036;-83
2021/12/15 11:46:51;;;;;;;41.00;23.67;;;;;;;8.74;56.63;101224.97;4350050;32;34253;-83
2021/12/15 11:49:30;;;;;;;39.38;22.92;;;;;;;8.82;56.45;101219.56;4358245;32;137298;-84
2021/12/15 11:52:08;;;;;;;38.83;22.40;;;;;;;8.84;56.61;101214.78;4362596;32;33782;-84
2021/12/15 11:54:42;;;;;;;40.00;23.27;;;;;;;8.95;56.51;101219.13;4362489;32;35159;-84
2021/12/15 11:57:27;;;;;;;36.58;21.12;;;;;;;8.82;56.39;101214.06;4355674;32;33444;-84
2021/12/15 12:00:39;;;;;;;38.63;21.80;;;;;;;8.88;56.18;101218.06;4341271;32;33143;-84
2021/12/15 12:03:19;;;;;;;39.78;21.25;;;;;;;8.85;56.01;101213.75;4349436;32;32294;-83
2021/12/15 12:05:47;;;;;;;35.60;21.05;;;;;;;8.89;55.92;101211.56;4355670;32;34555;-83
2021/12/15 12:08:15;;;;;;;39.42;19.50;;;;;;;8.75;55.93;101217.63;4329918;32;32400;-84
2021/12/15 12:10:49;;;;;;;33.05;19.10;;;;;;;8.90;55.68;101214.13;4361714;32;33419;-83
2021/12/15 12:13:26;;;;;;;34.05;18.70;;;;;;;8.71;55.58;101205.25;4362970;32;33921;-84
2021/12/15 12:16:05;;;;;;;31.95;19.40;;;;;;;8.54;55.83;101215.22;4363340;32;33080;-84
2021/12/15 12:18:34;;;;;;;36.17;20.80;;;;;;;8.75;55.37;101207.53;4362615;32;34705;-84
2021/12/15 12:21:08;;;;;;;39.35;21.80;;;;;;;8.77;55.52;101204.62;4363072;32;33400;-84
2021/12/15 12:23:40;;;;;;;34.63;19.55;;;;;;;8.66;55.79;101200.28;4339384;32;32185;-82
2021/12/15 12:26:10;;;;;;;36.03;20.62;;;;;;;8.68;55.76;101200.13;4350414;32;35483;-83
2021/12/15 12:28:41;;;;;;;37.25;20.17;;;;;;;8.76;55.64;101192.81;4350580;32;32298;-84
2021/12/15 12:31:21;;;;;;;34.50;19.87;;;;;;;8.79;55.54;101206.19;4351589;32;33466;-87
2021/12/15 12:33:49;;;;;;;34.70;19.62;;;;;;;8.75;55.45;101203.94;4351259;32;32988;-86
2021/12/15 12:36:33;;;;;;;33.65;19.58;;;;;;;8.83;55.45;101202.09;4363112;32;34464;-85
2021/12/15 12:39:09;;;;;;;35.30;19.90;;;;;;;8.89;55.58;101198.72;4353365;32;34667;-85
2021/12/15 12:41:49;;;;;;;36.65;19.65;;;;;;;8.82;55.75;101207.75;4362828;32;33206;-85
2021/12/15 12:44:21;;;;;;;36.25;20.17;;;;;;;8.92;55.69;101216.72;4362582;32;34745;-85
2021/12/15 12:47:01;;;;;;;34.03;18.77;;;;;;;8.83;55.80;101204.00;4364203;32;35314;-85